createdAt,value
2023-02-15T00:00:12.508Z,83.68
2023-02-15T00:03:00.346Z,81.38
2023-02-15T00:05:30.591Z,75.57
2023-02-15T00:07:58.477Z,83.10
2023-02-15T00:10:26.683Z,82.78
2023-02-15T00:12:54.524Z,82.05
2023-02-15T00:15:22.928Z,86.18
2023-02-15T00:17:50.795Z,80.75
2023-02-15T00:20:20.448Z,86.80
2023-02-15T00:22:48.319Z,78.10
2023-02-15T00:25:16.511Z,83.28
2023-02-15T00:27:44.406Z,75.30
2023-02-15T00:30:13.132Z,81.60
2023-02-15T00:32:40.995Z,69.35
2023-02-15T00:35:10.766Z,79.32
2023-02-15T00:37:38.764Z,81.07
2023-02-15T00:40:07.981Z,91.13
2023-02-15T00:42:35.968Z,71.00
2023-02-15T00:45:04.268Z,86.95
2023-02-15T00:47:33.538Z,73.18
2023-02-15T00:50:01.972Z,80.00
2023-02-15T00:52:30.076Z,84.93
2023-02-15T00:54:58.408Z,83.35
2023-02-15T00:57:26.246Z,70.53
2023-02-15T00:59:54.509Z,70.75
2023-02-15T01:02:22.524Z,68.50
2023-02-15T01:04:50.789Z,68.68
2023-02-15T01:07:18.734Z,94.85
2023-02-15T01:09:47.009Z,63.28
2023-02-15T01:12:14.994Z,77.78
2023-02-15T01:14:43.343Z,78.10
2023-02-15T01:17:11.442Z,68.38
2023-02-15T01:19:39.885Z,79.13
2023-02-15T01:22:08.399Z,65.88
2023-02-15T01:24:37.637Z,79.60
2023-02-15T01:27:05.628Z,68.05
2023-02-15T01:29:33.885Z,68.72
2023-02-15T01:32:02.092Z,64.43
2023-02-15T01:34:31.129Z,74.40
2023-02-15T01:36:59.028Z,66.55
2023-02-15T01:39:27.633Z,73.45
2023-02-15T01:41:55.661Z,74.68
2023-02-15T01:45:00.177Z,63.13
2023-02-15T01:47:42.292Z,71.32
2023-02-15T01:50:22.641Z,62.03
2023-02-15T01:52:56.957Z,62.42
2023-02-15T01:55:29.759Z,59.72
2023-02-15T01:57:57.736Z,61.08
2023-02-15T02:00:26.457Z,63.53
2023-02-15T02:02:58.467Z,67.22
2023-02-15T02:05:27.476Z,59.10
2023-02-15T02:07:59.847Z,53.53
2023-02-15T02:10:29.396Z,56.65
2023-02-15T02:13:06.066Z,57.95
2023-02-15T02:15:57.735Z,57.40
2023-02-15T02:18:34.626Z,64.95
2023-02-15T02:21:31.669Z,57.30
2023-02-15T02:24:12.647Z,58.78
2023-02-15T02:26:59.094Z,55.72
2023-02-15T02:29:42.199Z,55.85
2023-02-15T02:32:48.817Z,74.78
2023-02-15T02:35:45.930Z,63.92
2023-02-15T02:38:28.736Z,57.85
2023-02-15T02:41:19.028Z,65.38
2023-02-15T02:43:50.509Z,62.75
2023-02-15T02:46:27.581Z,66.57
2023-02-15T02:48:57.889Z,54.88
2023-02-15T02:51:25.945Z,65.88
2023-02-15T02:53:58.293Z,55.58
2023-02-15T02:56:33.197Z,63.78
2023-02-15T02:59:09.007Z,63.83
2023-02-15T03:02:01.027Z,61.13
2023-02-15T03:04:37.716Z,62.35
2023-02-15T03:07:11.466Z,68.32
2023-02-15T03:09:44.478Z,60.50
2023-02-15T03:12:16.369Z,50.40
2023-02-15T03:14:51.649Z,48.67
2023-02-15T03:17:23.959Z,55.20
2023-02-15T03:19:55.999Z,56.28
2023-02-15T03:22:34.710Z,55.15
2023-02-15T03:25:16.300Z,55.20
2023-02-15T03:27:48.774Z,50.08
2023-02-15T03:30:22.781Z,58.72
2023-02-15T03:32:52.967Z,54.45
2023-02-15T03:35:26.004Z,61.33
2023-02-15T03:38:02.164Z,52.33
2023-02-15T03:40:59.804Z,60.65
2023-02-15T03:44:00.574Z,62.25
2023-02-15T03:46:54.084Z,56.95
2023-02-15T03:49:47.381Z,58.40
2023-02-15T03:52:17.712Z,59.13
2023-02-15T03:54:48.834Z,56.33
2023-02-15T03:57:39.766Z,55.92
2023-02-15T04:00:35.983Z,52.22
2023-02-15T04:03:16.292Z,58.47
2023-02-15T04:05:45.553Z,58.38
2023-02-15T04:08:14.279Z,55.00
2023-02-15T04:10:54.493Z,66.65
2023-02-15T04:13:32.981Z,59.75
2023-02-15T04:16:08.153Z,55.25
2023-02-15T04:19:01.300Z,57.10
2023-02-15T04:21:49.539Z,57.67
2023-02-15T04:24:37.008Z,53.83
2023-02-15T04:27:06.838Z,58.92
2023-02-15T04:29:35.268Z,59.10
2023-02-15T04:32:03.782Z,51.42
2023-02-15T04:34:32.126Z,60.30
2023-02-15T04:37:00.016Z,54.53
2023-02-15T04:39:28.269Z,59.83
2023-02-15T04:41:56.218Z,53.67
2023-02-15T04:44:24.524Z,58.63
2023-02-15T04:46:52.297Z,53.75
2023-02-15T04:49:20.543Z,58.00
2023-02-15T04:51:48.573Z,57.97
2023-02-15T04:54:16.838Z,58.65
2023-02-15T04:56:44.780Z,54.38
2023-02-15T04:59:13.566Z,59.38
2023-02-15T05:01:41.436Z,54.15
2023-02-15T05:04:10.568Z,56.03
2023-02-15T05:06:38.424Z,57.55
2023-02-15T05:09:06.657Z,54.92
2023-02-15T05:11:34.633Z,55.47
2023-02-15T05:14:02.886Z,54.05
2023-02-15T05:16:30.911Z,49.25
2023-02-15T05:18:59.455Z,52.58
2023-02-15T05:21:27.605Z,56.40
2023-02-15T05:23:56.035Z,57.75
2023-02-15T05:26:44.237Z,51.50
2023-02-15T05:29:12.518Z,91.68
2023-02-15T05:31:40.635Z,53.55
2023-02-15T05:34:09.072Z,57.58
2023-02-15T05:36:36.912Z,51.72
2023-02-15T05:39:07.043Z,53.67
2023-02-15T05:41:34.861Z,50.65
2023-02-15T05:44:03.115Z,53.65
2023-02-15T05:46:31.044Z,50.17
2023-02-15T05:48:59.381Z,53.28
2023-02-15T05:51:27.291Z,43.80
2023-02-15T05:53:55.684Z,55.67
2023-02-15T05:56:23.555Z,47.63
2023-02-15T05:58:54.288Z,58.15
2023-02-15T06:01:24.125Z,53.95
2023-02-15T06:03:53.318Z,45.50
2023-02-15T06:06:21.182Z,51.17
2023-02-15T06:08:49.830Z,48.38
2023-02-15T06:11:17.795Z,60.13
2023-02-15T06:13:46.076Z,52.17
2023-02-15T06:16:13.970Z,45.72
2023-02-15T06:18:42.382Z,50.30
2023-02-15T06:21:10.348Z,55.47
2023-02-15T06:23:39.053Z,56.53
2023-02-15T06:26:06.905Z,68.15
2023-02-15T06:28:35.242Z,55.15
2023-02-15T06:31:03.128Z,52.80
2023-02-15T06:33:37.527Z,52.70
2023-02-15T06:36:05.484Z,53.30
2023-02-15T06:38:33.870Z,65.45
2023-02-15T06:41:01.805Z,50.63
2023-02-15T06:43:29.909Z,52.75
2023-02-15T06:45:57.863Z,59.08
2023-02-15T06:48:26.222Z,49.45
2023-02-15T06:50:54.071Z,59.92
2023-02-15T06:53:22.231Z,59.20
2023-02-15T06:55:50.042Z,59.88
2023-02-15T06:58:18.273Z,80.93
2023-02-15T07:00:46.192Z,55.50
2023-02-15T07:03:16.115Z,66.60
2023-02-15T07:05:44.932Z,57.70
2023-02-15T07:08:13.199Z,59.20
2023-02-15T07:10:45.018Z,53.15
2023-02-15T07:13:13.206Z,62.00
2023-02-15T07:15:41.109Z,52.53
2023-02-15T07:18:10.541Z,59.30
2023-02-15T07:20:39.270Z,71.88
2023-02-15T07:23:07.466Z,63.83
2023-02-15T07:25:36.097Z,57.88
2023-02-15T07:28:05.264Z,58.72
2023-02-15T07:30:33.236Z,53.42
2023-02-15T07:33:39.832Z,59.70
2023-02-15T07:36:08.311Z,63.50
2023-02-15T07:38:38.302Z,63.42
2023-02-15T07:41:12.681Z,77.68
2023-02-15T07:43:43.447Z,70.32
2023-02-15T07:46:14.463Z,64.25
2023-02-15T07:48:43.417Z,69.95
2023-02-15T07:51:12.805Z,73.13
2023-02-15T07:53:41.675Z,60.78
2023-02-15T07:56:13.923Z,72.22
2023-02-15T07:58:51.862Z,68.95
2023-02-15T08:01:36.429Z,81.30
2023-02-15T08:04:07.555Z,80.60
2023-02-15T08:06:37.224Z,78.50
2023-02-15T08:09:08.588Z,81.68
2023-02-15T08:11:38.810Z,67.78
2023-02-15T08:14:13.157Z,73.65
2023-02-15T08:16:54.162Z,75.95
2023-02-15T08:19:28.013Z,79.43
2023-02-15T08:21:58.561Z,73.32
2023-02-15T08:24:30.348Z,75.68
2023-02-15T08:26:59.601Z,79.57
2023-02-15T08:29:29.562Z,68.88
2023-02-15T08:32:03.389Z,76.30
2023-02-15T08:34:35.667Z,68.78
2023-02-15T08:37:03.837Z,65.65
2023-02-15T08:39:32.213Z,64.53
2023-02-15T08:42:00.431Z,64.15
2023-02-15T08:44:28.872Z,65.82
2023-02-15T08:46:59.855Z,64.55
2023-02-15T08:49:28.042Z,61.72
2023-02-15T08:51:55.914Z,67.85
2023-02-15T08:54:24.457Z,65.97
2023-02-15T08:56:52.604Z,74.53
2023-02-15T08:59:23.478Z,70.45
2023-02-15T09:01:53.087Z,72.72
2023-02-15T09:04:22.137Z,62.47
2023-02-15T09:06:51.043Z,67.28
2023-02-15T09:09:20.355Z,68.20
2023-02-15T09:11:55.833Z,74.68
2023-02-15T09:14:28.142Z,68.35
2023-02-15T09:16:56.611Z,78.93
2023-02-15T09:19:25.832Z,75.57
2023-02-15T09:21:54.852Z,85.38
2023-02-15T09:24:22.791Z,70.75
2023-02-15T09:26:51.163Z,84.85
2023-02-15T09:29:20.041Z,98.93
2023-02-15T09:31:51.258Z,79.93
2023-02-15T09:34:22.618Z,81.38
2023-02-15T09:36:52.220Z,91.18
2023-02-15T09:39:25.412Z,89.85
2023-02-15T09:41:56.224Z,100.60
2023-02-15T09:44:33.204Z,102.05
2023-02-15T09:47:07.576Z,115.30
2023-02-15T09:49:44.173Z,101.20
2023-02-15T09:52:12.296Z,93.45
2023-02-15T09:55:09.748Z,93.90
2023-02-15T09:57:54.879Z,86.65
2023-02-15T10:00:51.020Z,92.72
2023-02-15T10:03:40.591Z,85.50
2023-02-15T10:06:33.666Z,89.47
2023-02-15T10:09:20.344Z,92.53
2023-02-15T10:11:54.590Z,80.28
2023-02-15T10:14:41.241Z,88.78
2023-02-15T10:17:27.347Z,86.35
2023-02-15T10:20:12.416Z,85.95
2023-02-15T10:22:55.116Z,84.47
2023-02-15T10:25:41.542Z,79.67
2023-02-15T10:28:28.010Z,79.10
2023-02-15T10:31:09.398Z,64.15
2023-02-15T10:33:42.483Z,77.80
2023-02-15T10:36:43.182Z,85.43
2023-02-15T10:39:23.271Z,78.85
2023-02-15T10:42:00.337Z,82.72
2023-02-15T10:44:55.962Z,70.03
2023-02-15T10:47:47.163Z,71.68
2023-02-15T10:50:38.450Z,72.70
2023-02-15T10:53:41.635Z,65.18
2023-02-15T10:56:42.728Z,71.05
2023-02-15T10:59:47.062Z,63.78
2023-02-15T11:02:38.060Z,68.45
2023-02-15T11:05:27.330Z,63.33
2023-02-15T11:08:00.621Z,56.72
2023-02-15T11:10:53.093Z,62.78
2023-02-15T11:13:25.351Z,68.88
2023-02-15T11:15:58.823Z,74.72
2023-02-15T11:18:33.924Z,70.93
2023-02-15T11:21:34.060Z,61.45
2023-02-15T11:24:03.198Z,65.88
2023-02-15T11:26:42.731Z,66.72
2023-02-15T11:29:39.960Z,74.00
2023-02-15T11:32:14.139Z,67.95
2023-02-15T11:34:59.580Z,72.45
2023-02-15T11:37:38.145Z,71.15
2023-02-15T11:40:16.278Z,73.18
2023-02-15T11:42:45.780Z,67.82
2023-02-15T11:45:32.148Z,72.03
2023-02-15T11:48:01.606Z,64.32
2023-02-15T11:50:32.195Z,69.13
2023-02-15T11:53:05.816Z,66.38
2023-02-15T11:55:36.311Z,78.35
2023-02-15T11:58:17.806Z,70.68
2023-02-15T12:00:49.151Z,68.70
2023-02-15T12:03:23.604Z,65.93
2023-02-15T12:05:58.446Z,63.55
2023-02-15T12:08:34.897Z,61.15
2023-02-15T12:11:13.392Z,54.55
2023-02-15T12:14:02.096Z,49.28
2023-02-15T12:16:35.781Z,57.47
2023-02-15T12:19:04.256Z,55.67
2023-02-15T12:21:40.978Z,54.50
2023-02-15T12:24:22.863Z,43.55
2023-02-15T12:27:38.336Z,48.55
2023-02-15T12:30:25.084Z,51.78
2023-02-15T12:32:54.359Z,53.22
2023-02-15T12:35:36.854Z,44.15
2023-02-15T12:38:26.792Z,51.10
2023-02-15T12:41:27.674Z,52.25
2023-02-15T12:44:16.227Z,52.42
2023-02-15T12:47:02.601Z,50.42
2023-02-15T12:49:39.771Z,49.40
2023-02-15T12:52:23.190Z,45.55
2023-02-15T12:54:51.818Z,57.28
2023-02-15T12:57:34.137Z,48.72
2023-02-15T13:00:25.744Z,49.13
2023-02-15T13:02:56.580Z,47.65
2023-02-15T13:05:45.118Z,50.72
2023-02-15T13:08:18.063Z,42.17
2023-02-15T13:11:05.157Z,50.60
2023-02-15T13:13:37.504Z,46.65
2023-02-15T13:16:15.313Z,53.20
2023-02-15T13:18:48.473Z,52.17
2023-02-15T13:21:37.751Z,48.80
2023-02-15T13:24:22.396Z,49.92
2023-02-15T13:26:51.023Z,45.85
2023-02-15T13:29:24.942Z,43.25
2023-02-15T13:31:54.924Z,50.05
2023-02-15T13:34:25.906Z,44.55
2023-02-15T13:37:31.486Z,49.83
2023-02-15T13:40:09.403Z,48.45
2023-02-15T13:42:54.303Z,44.65
2023-02-15T13:45:37.702Z,46.97
2023-02-15T13:48:46.869Z,44.58
2023-02-15T13:51:46.395Z,42.70
2023-02-15T13:54:33.424Z,44.25
2023-02-15T13:57:27.454Z,45.67
2023-02-15T14:00:00.036Z,40.63
2023-02-15T14:02:28.144Z,46.58
2023-02-15T14:05:32.058Z,41.70
2023-02-15T14:08:10.023Z,37.05
2023-02-15T14:10:58.372Z,39.80
2023-02-15T14:13:45.244Z,40.92
2023-02-15T14:16:30.572Z,40.25
2023-02-15T14:19:24.999Z,50.80
2023-02-15T14:22:34.704Z,57.25
2023-02-15T14:25:27.402Z,52.47
2023-02-15T14:28:17.822Z,51.05
2023-02-15T14:30:50.362Z,51.92
2023-02-15T14:33:34.765Z,55.42
2023-02-15T14:36:07.379Z,56.40
2023-02-15T14:38:57.174Z,51.05
2023-02-15T14:41:43.796Z,49.65
2023-02-15T14:44:32.274Z,47.55
2023-02-15T14:47:19.826Z,53.60
2023-02-15T14:49:47.865Z,64.60
2023-02-15T14:52:16.283Z,52.72
2023-02-15T14:54:46.992Z,57.03
2023-02-15T14:57:15.101Z,61.00
2023-02-15T14:59:58.606Z,65.03
2023-02-15T15:02:51.014Z,65.72
2023-02-15T15:05:36.140Z,80.93
2023-02-15T15:08:06.620Z,65.65
2023-02-15T15:10:43.298Z,75.90
2023-02-15T15:13:33.514Z,81.70
2023-02-15T15:16:39.710Z,74.95
2023-02-15T15:19:11.833Z,70.95
2023-02-15T15:21:51.850Z,63.70
2023-02-15T15:24:38.691Z,61.60
2023-02-15T15:27:41.301Z,78.00
2023-02-15T15:30:15.532Z,81.85
2023-02-15T15:33:13.027Z,76.55
2023-02-15T15:36:08.591Z,88.43
2023-02-15T15:38:39.208Z,78.43
2023-02-15T15:41:34.555Z,87.68
2023-02-15T15:44:20.801Z,82.40
2023-02-15T15:47:17.864Z,83.13
2023-02-15T15:49:45.849Z,88.63
2023-02-15T15:52:19.937Z,97.43
2023-02-15T15:54:51.368Z,92.72
2023-02-15T15:57:33.490Z,97.40
2023-02-15T16:00:01.401Z,92.38
2023-02-15T16:02:29.745Z,97.88
2023-02-15T16:05:10.620Z,96.18
2023-02-15T16:07:42.311Z,106.05
2023-02-15T16:10:26.981Z,113.88
2023-02-15T16:12:56.036Z,98.97
2023-02-15T16:15:27.489Z,113.60
2023-02-15T16:17:59.107Z,116.53
2023-02-15T16:20:35.317Z,114.22
2023-02-15T16:23:15.885Z,109.78
2023-02-15T16:25:55.520Z,109.22
2023-02-15T16:28:24.217Z,110.43
2023-02-15T16:31:18.586Z,114.35
2023-02-15T16:33:47.318Z,112.75
2023-02-15T16:36:24.308Z,124.82
2023-02-15T16:38:52.433Z,105.93
2023-02-15T16:41:32.310Z,104.82
2023-02-15T16:44:08.905Z,129.55
2023-02-15T16:46:45.085Z,121.05
2023-02-15T16:49:28.827Z,130.40
2023-02-15T16:52:07.086Z,121.65
2023-02-15T16:54:36.590Z,111.35
2023-02-15T16:57:04.737Z,113.72
2023-02-15T16:59:45.599Z,109.43
2023-02-15T17:02:40.204Z,105.28
2023-02-15T17:05:18.696Z,89.38
2023-02-15T17:08:15.895Z,108.97
2023-02-15T17:11:05.689Z,100.05
2023-02-15T17:13:33.886Z,100.80
2023-02-15T17:16:02.471Z,95.50
2023-02-15T17:18:34.060Z,102.15
2023-02-15T17:21:13.411Z,98.55
2023-02-15T17:23:44.376Z,97.30
2023-02-15T17:26:25.155Z,94.43
2023-02-15T17:29:00.326Z,93.78
2023-02-15T17:31:34.209Z,109.70
2023-02-15T17:34:04.057Z,94.90
2023-02-15T17:36:33.058Z,113.47
2023-02-15T17:39:07.695Z,113.78
2023-02-15T17:41:38.517Z,109.28
2023-02-15T17:44:08.907Z,117.97
2023-02-15T17:46:38.629Z,113.30
2023-02-15T17:49:07.000Z,113.78
2023-02-15T17:51:36.646Z,107.15
2023-02-15T17:54:23.165Z,131.02
2023-02-15T17:56:51.439Z,126.35
2023-02-15T17:59:19.433Z,131.82
2023-02-15T18:02:08.393Z,116.68
2023-02-15T18:04:56.332Z,123.05
2023-02-15T18:07:43.525Z,120.47
2023-02-15T18:10:35.510Z,123.10
2023-02-15T18:13:04.203Z,109.50
2023-02-15T18:15:32.238Z,131.57
2023-02-15T18:18:00.564Z,125.35
2023-02-15T18:20:35.031Z,112.43
2023-02-15T18:23:03.427Z,104.07
2023-02-15T18:25:31.351Z,116.88
2023-02-15T18:27:59.576Z,107.03
2023-02-15T18:30:27.795Z,111.45
2023-02-15T18:32:58.170Z,121.40
2023-02-15T18:35:30.133Z,112.60
2023-02-15T18:38:01.205Z,113.40
2023-02-15T18:40:29.666Z,104.32
2023-02-15T18:42:57.959Z,100.93
2023-02-15T18:45:33.307Z,102.78
2023-02-15T18:48:02.224Z,98.95
2023-02-15T18:50:33.930Z,88.13
2023-02-15T18:53:04.575Z,95.32
2023-02-15T18:55:33.965Z,94.25
2023-02-15T18:58:02.736Z,98.15
2023-02-15T19:00:35.200Z,95.15
2023-02-15T19:03:03.822Z,127.63
2023-02-15T19:05:33.354Z,114.82
2023-02-15T19:08:02.844Z,111.63
2023-02-15T19:10:33.314Z,100.07
2023-02-15T19:13:01.819Z,109.97
2023-02-15T19:15:30.759Z,114.75
2023-02-15T19:17:59.135Z,108.45
2023-02-15T19:20:34.295Z,101.85
2023-02-15T19:23:03.234Z,103.15
2023-02-15T19:25:34.506Z,103.00
2023-02-15T19:28:16.710Z,105.53
2023-02-15T19:30:45.015Z,104.25
2023-02-15T19:33:19.300Z,88.55
2023-02-15T19:35:53.348Z,98.20
2023-02-15T19:38:27.230Z,99.93
2023-02-15T19:41:02.496Z,95.88
2023-02-15T19:43:31.333Z,94.82
2023-02-15T19:45:59.897Z,100.82
2023-02-15T19:48:29.180Z,97.28
2023-02-15T19:50:58.093Z,109.95
2023-02-15T19:53:29.407Z,100.55
2023-02-15T19:55:58.725Z,100.45
2023-02-15T19:58:28.176Z,99.65
2023-02-15T20:00:57.365Z,97.47
2023-02-15T20:03:27.526Z,120.10
2023-02-15T20:05:56.874Z,114.03
2023-02-15T20:08:26.591Z,98.53
2023-02-15T20:10:55.365Z,87.68
2023-02-15T20:13:24.146Z,98.63
2023-02-15T20:15:53.466Z,88.90
2023-02-15T20:18:22.984Z,111.03
2023-02-15T20:20:54.576Z,96.22
2023-02-15T20:23:40.019Z,95.60
2023-02-15T20:26:19.540Z,94.93
2023-02-15T20:28:49.914Z,96.32
2023-02-15T20:31:21.764Z,98.03
2023-02-15T20:33:51.590Z,103.00
2023-02-15T20:36:24.017Z,90.40
2023-02-15T20:38:54.214Z,92.47
2023-02-15T20:41:38.651Z,90.53
2023-02-15T20:44:25.139Z,93.70
2023-02-15T20:46:58.558Z,95.40
2023-02-15T20:49:27.873Z,90.13
2023-02-15T20:51:57.288Z,93.45
2023-02-15T20:54:29.192Z,96.47
2023-02-15T20:56:57.405Z,96.53
2023-02-15T20:59:32.077Z,87.60
2023-02-15T21:02:02.878Z,93.95
2023-02-15T21:04:33.756Z,97.15
2023-02-15T21:07:01.773Z,99.05
2023-02-15T21:09:30.146Z,101.88
2023-02-15T21:12:01.506Z,98.97
2023-02-15T21:14:29.732Z,94.10
2023-02-15T21:16:57.723Z,114.97
2023-02-15T21:19:26.057Z,94.15
2023-02-15T21:21:54.342Z,101.25
2023-02-15T21:24:26.120Z,98.20
2023-02-15T21:26:55.660Z,96.63
2023-02-15T21:29:27.100Z,93.82
2023-02-15T21:31:55.230Z,95.63
2023-02-15T21:34:23.652Z,94.88
2023-02-15T21:36:51.551Z,93.10
2023-02-15T21:39:23.902Z,100.97
2023-02-15T21:42:12.254Z,94.75
2023-02-15T21:44:59.105Z,95.93
2023-02-15T21:47:50.774Z,96.75
2023-02-15T21:50:40.960Z,100.78
2023-02-15T21:53:18.418Z,83.90
2023-02-15T21:55:46.522Z,96.15
2023-02-15T21:58:20.711Z,97.60
2023-02-15T22:00:49.448Z,109.32
2023-02-15T22:03:17.356Z,89.57
2023-02-15T22:05:45.392Z,92.18
2023-02-15T22:08:14.388Z,92.30
2023-02-15T22:10:43.401Z,99.18
2023-02-15T22:13:19.937Z,89.40
2023-02-15T22:15:48.142Z,87.95
2023-02-15T22:18:25.178Z,99.63
2023-02-15T22:20:54.694Z,94.28
2023-02-15T22:23:23.778Z,108.57
2023-02-15T22:25:58.653Z,91.78
2023-02-15T22:28:35.872Z,97.00
2023-02-15T22:31:06.829Z,96.57
2023-02-15T22:33:35.116Z,108.18
2023-02-15T22:36:04.152Z,89.95
2023-02-15T22:38:32.568Z,92.93
2023-02-15T22:41:04.670Z,101.00
2023-02-15T22:43:41.405Z,95.00
2023-02-15T22:46:19.177Z,96.22
2023-02-15T22:48:48.448Z,102.15
2023-02-15T22:51:20.242Z,96.70
2023-02-15T22:53:49.902Z,105.90
2023-02-15T22:56:42.258Z,93.70
2023-02-15T22:59:30.032Z,93.05
2023-02-15T23:01:58.407Z,96.47
2023-02-15T23:04:29.324Z,97.40
2023-02-15T23:07:00.759Z,87.63
2023-02-15T23:09:28.478Z,91.88
2023-02-15T23:11:57.342Z,84.45
2023-02-15T23:14:34.671Z,91.50
2023-02-15T23:17:03.037Z,82.47
2023-02-15T23:19:30.812Z,87.55
2023-02-15T23:21:58.799Z,99.80
2023-02-15T23:24:34.814Z,82.95
2023-02-15T23:27:21.794Z,83.38
2023-02-15T23:29:49.611Z,87.93
2023-02-15T23:32:17.863Z,83.95
2023-02-15T23:34:45.684Z,71.78
2023-02-15T23:37:15.695Z,83.07
2023-02-15T23:40:02.394Z,79.13
2023-02-15T23:42:33.818Z,83.20
2023-02-15T23:45:02.716Z,77.57
2023-02-15T23:47:52.265Z,80.93
2023-02-15T23:50:23.164Z,88.93
2023-02-15T23:52:52.674Z,94.28
2023-02-15T23:55:21.433Z,80.93
2023-02-15T23:57:50.197Z,85.43
